Time;durP1;ratioP1;P1;durP2;ratioP2;P2;SDS_P1;SDS_P2;PMS_P1;PMS_P2;Temp;Humidity;BMP_temperature;BMP_pressure;BME280_temperature;BME280_humidity;BME280_pressure;Samples;Min_cycle;Max_cycle;Signal;HPM_P1;HPM_P2
2021/12/15 00:02:02;;;;;;;20.15;7.90;;;;;;;13.63;90.65;102365.63;7390150;19;20026;-69
2021/12/15 00:04:29;;;;;;;6.55;2.08;;;;;;;13.61;90.86;102367.59;7392341;19;20055;-66
2021/12/15 00:06:57;;;;;;;21.08;10.38;;;;;;;13.60;91.56;102366.75;7394483;19;20016;-66
2021/12/15 00:09:25;;;;;;;17.70;8.73;;;;;;;13.61;92.42;102365.75;7392101;19;20330;-68
2021/12/15 00:11:53;;;;;;;14.38;5.85;;;;;;;13.59;92.30;102364.25;7392643;19;20354;-68
2021/12/15 00:14:32;;;;;;;7.40;2.97;;;;;;;13.57;92.36;102363.53;7393581;19;20572;-66
2021/12/15 00:16:59;;;;;;;15.00;6.00;;;;;;;13.54;91.88;102361.16;7390373;19;20010;-68
2021/12/15 00:19:27;;;;;;;37.95;9.95;;;;;;;13.55;92.54;102360.19;7394874;19;20011;-66
2021/12/15 00:21:56;;;;;;;16.73;7.45;;;;;;;13.48;92.13;102359.88;7390982;19;20685;-68
2021/12/15 00:24:24;;;;;;;6.20;2.75;;;;;;;13.38;91.54;102366.94;7393815;19;20022;-67
2021/12/15 00:26:54;;;;;;;13.07;6.63;;;;;;;13.35;91.61;102363.72;7389142;19;20027;-67
2021/12/15 00:29:23;;;;;;;17.35;7.70;;;;;;;13.36;92.21;102362.78;7392734;19;20069;-66
2021/12/15 00:31:52;;;;;;;15.40;4.90;;;;;;;13.31;92.14;102362.34;7391553;19;20017;-67
2021/12/15 00:34:21;;;;;;;8.30;2.72;;;;;;;13.33;92.45;102369.16;7393254;19;20090;-65
2021/12/15 00:36:48;;;;;;;10.10;3.97;;;;;;;13.33;92.57;102368.31;7387423;19;20034;-68
2021/12/15 00:39:21;;;;;;;14.38;5.78;;;;;;;13.33;92.62;102363.84;7390104;19;20006;-67
2021/12/15 00:41:50;;;;;;;6.95;2.80;;;;;;;13.32;92.43;102363.97;7390695;19;20324;-66
2021/12/15 00:44:17;;;;;;;5.15;2.15;;;;;;;13.29;92.05;102370.38;7389131;19;20019;-67
2021/12/15 00:46:45;;;;;;;9.15;2.92;;;;;;;13.30;92.35;102369.41;7390313;19;20011;-65
2021/12/15 00:49:12;;;;;;;3.08;1.40;;;;;;;13.27;92.07;102373.16;7394794;19;20010;-67
2021/12/15 00:51:40;;;;;;;6.78;1.50;;;;;;;13.24;91.33;102375.22;7389958;19;20018;-66
2021/12/15 00:54:08;;;;;;;8.65;3.28;;;;;;;13.21;91.29;102372.84;7388333;19;20023;-69
2021/12/15 00:56:35;;;;;;;6.40;2.30;;;;;;;13.21;91.63;102359.63;7388566;19;20014;-66
2021/12/15 00:59:05;;;;;;;7.28;1.85;;;;;;;13.23;91.64;102362.97;7390128;19;20470;-67
2021/12/15 01:01:35;;;;;;;8.15;3.75;;;;;;;13.30;91.73;102371.22;7391353;19;20015;-67
2021/12/15 01:04:04;;;;;;;5.47;1.67;;;;;;;13.35;91.97;102366.38;7387558;19;20070;-68
2021/12/15 01:06:32;;;;;;;7.20;4.25;;;;;;;13.38;91.44;102369.59;7390958;19;20383;-67
2021/12/15 01:09:03;;;;;;;4.45;1.70;;;;;;;13.39;91.28;102373.91;7390594;19;20167;-67
2021/12/15 01:21:56;;;;;;;6.38;1.33;;;;;;;13.45;90.54;102367.25;7386559;19;20023;-66
2021/12/15 01:24:24;;;;;;;11.15;3.88;;;;;;;13.45;90.28;102373.38;7392044;19;20013;-67
2021/12/15 01:26:51;;;;;;;6.07;2.20;;;;;;;13.46;90.64;102375.03;7387612;19;20088;-67
2021/12/15 01:29:19;;;;;;;4.72;1.45;;;;;;;13.45;90.28;102367.25;7386838;19;20607;-66
2021/12/15 01:31:46;;;;;;;5.88;2.03;;;;;;;13.42;90.20;102370.97;7386891;19;20015;-67
2021/12/15 01:34:14;;;;;;;5.07;1.35;;;;;;;13.41;90.44;102376.44;7387428;19;20011;-67
2021/12/15 01:36:41;;;;;;;13.68;4.40;;;;;;;13.40;90.36;102370.31;7385945;19;20062;-66
2021/12/15 01:39:09;;;;;;;3.40;1.52;;;;;;;13.43;91.11;102371.81;7386543;19;20007;-67
2021/12/15 01:41:36;;;;;;;4.05;1.50;;;;;;;13.46;91.00;102371.56;7390961;19;20032;-66
2021/12/15 01:49:18;;;;;;;6.28;2.45;;;;;;;13.57;90.79;102385.53;7389534;19;20015;-66
2021/12/15 01:51:45;;;;;;;;;;;;;;;13.56;90.02;102383.84;7389490;19;20336;-66
2021/12/15 01:54:16;;;;;;;6.10;1.98;;;;;;;13.49;89.04;102381.88;7387001;19;19982;-67
2021/12/15 01:56:44;;;;;;;5.18;1.33;;;;;;;13.50;89.57;102384.41;7388708;19;20077;-66
2021/12/15 01:59:13;;;;;;;2.60;0.70;;;;;;;13.52;89.58;102387.72;7386300;19;20093;-67
2021/12/15 02:01:41;;;;;;;6.47;1.98;;;;;;;13.55;89.57;102392.78;7386786;19;20007;-67
2021/12/15 02:04:09;;;;;;;2.42;1.00;;;;;;;13.56;89.07;102390.97;7386852;19;20494;-66
2021/12/15 02:06:41;;;;;;;4.45;2.25;;;;;;;13.55;88.29;102399.88;7386871;19;20018;-65
2021/12/15 02:09:09;;;;;;;3.25;0.90;;;;;;;13.57;88.94;102397.91;7385360;19;20014;-66
2021/12/15 02:11:37;;;;;;;2.55;0.55;;;;;;;13.58;88.61;102402.22;7386930;19;20355;-67
2021/12/15 02:14:04;;;;;;;4.78;1.45;;;;;;;13.56;88.58;102401.53;7389153;19;20027;-67
2021/12/15 02:16:31;;;;;;;4.50;0.90;;;;;;;13.57;88.28;102409.31;7386029;19;20086;-66
2021/12/15 02:18:58;;;;;;;12.20;5.25;;;;;;;13.59;88.58;102402.09;7386383;19;20041;-66
2021/12/15 02:21:26;;;;;;;5.10;1.20;;;;;;;13.66;89.48;102413.00;7389557;19;20021;-67
2021/12/15 02:23:56;;;;;;;4.25;1.00;;;;;;;13.66;88.64;102410.34;7386700;19;20031;-67
2021/12/15 02:26:33;;;;;;;7.40;2.55;;;;;;;13.70;89.38;102411.75;7390395;19;20007;-67
2021/12/15 02:29:02;;;;;;;5.15;1.42;;;;;;;13.70;88.71;102414.41;7386314;19;20007;-67
2021/12/15 02:39:14;;;;;;;3.40;0.90;;;;;;;13.79;88.97;102421.53;7388121;19;20014;-67
2021/12/15 02:41:43;;;;;;;4.28;0.68;;;;;;;13.79;87.80;102420.69;7385728;19;20446;-68
2021/12/15 02:44:16;;;;;;;4.10;1.95;;;;;;;13.81;88.99;102419.59;7388494;19;20023;-66
2021/12/15 02:46:44;;;;;;;2.67;1.00;;;;;;;13.79;87.49;102416.22;7388964;19;20017;-67
2021/12/15 02:49:15;;;;;;;4.40;0.85;;;;;;;13.75;86.93;102430.72;7385691;19;20038;-66
2021/12/15 02:51:45;;;;;;;2.22;0.70;;;;;;;13.73;87.55;102430.00;7385478;19;20086;-66
2021/12/15 02:54:15;;;;;;;4.00;0.80;;;;;;;13.73;87.27;102430.00;7384280;19;20038;-65
2021/12/15 02:56:44;;;;;;;2.88;1.45;;;;;;;13.75;88.35;102430.72;7386572;19;20082;-67
2021/12/15 02:59:14;;;;;;;3.30;0.73;;;;;;;13.79;88.33;102431.28;7387260;19;20082;-67
2021/12/15 03:16:50;;;;;;;4.60;0.80;;;;;;;13.74;88.26;102423.75;7395416;19;20043;-66
2021/12/15 03:19:18;;;;;;;5.13;1.02;;;;;;;13.74;88.21;102426.38;7391866;19;20007;-66
2021/12/15 03:21:45;;;;;;;2.35;0.80;;;;;;;13.78;88.83;102424.28;7391501;19;20522;-68
2021/12/15 03:24:20;;;;;;;2.28;1.08;;;;;;;13.80;88.20;102425.00;7392455;19;20316;-68
2021/12/15 03:26:59;;;;;;;11.18;4.35;;;;;;;13.81;89.19;102422.25;7392145;19;20021;-66
2021/12/15 03:39:33;;;;;;;10.00;1.60;;;;;;;13.82;87.07;102423.06;7393255;19;20054;-67
2021/12/15 03:42:05;;;;;;;1.50;0.65;;;;;;;13.82;86.86;102425.69;7391377;19;20027;-66
2021/12/15 03:44:36;;;;;;;16.02;7.07;;;;;;;13.88;86.81;102422.53;7395626;19;20019;-67
2021/12/15 03:47:06;;;;;;;2.03;0.65;;;;;;;13.86;86.56;102422.69;7391311;19;20396;-66
2021/12/15 03:49:34;;;;;;;3.95;0.98;;;;;;;13.85;86.12;102420.16;7393887;19;20078;-69
2021/12/15 03:52:04;;;;;;;3.70;0.98;;;;;;;13.86;85.83;102424.47;7391805;19;20752;-66
2021/12/15 03:54:33;;;;;;;2.25;0.45;;;;;;;13.87;85.29;102419.03;7394969;19;20007;-65
2021/12/15 03:57:01;;;;;;;1.98;0.65;;;;;;;13.89;84.67;102425.03;7394883;19;20031;-65
2021/12/15 03:59:29;;;;;;;3.80;0.80;;;;;;;13.90;84.50;102420.59;7391861;19;20123;-69
2021/12/15 04:01:56;;;;;;;3.83;1.10;;;;;;;13.92;84.33;102424.75;7392698;19;20330;-68
2021/12/15 04:04:23;;;;;;;3.83;0.65;;;;;;;13.92;84.47;102422.13;7389642;19;20479;-67
2021/12/15 04:06:51;;;;;;;3.88;0.73;;;;;;;13.92;84.06;102424.75;7390168;19;20463;-67
2021/12/15 04:09:18;;;;;;;5.60;1.65;;;;;;;13.95;85.24;102428.97;7390609;19;20435;-67
2021/12/15 04:11:45;;;;;;;3.55;1.30;;;;;;;13.91;84.85;102428.41;7391174;19;20129;-67
2021/12/15 04:14:20;;;;;;;10.15;5.32;;;;;;;13.91;85.92;102423.09;7388769;19;20017;-67
2021/12/15 04:19:20;;;;;;;4.22;0.60;;;;;;;13.93;84.95;102431.72;7391961;19;20010;-68
2021/12/15 04:21:48;;;;;;;5.97;1.88;;;;;;;13.97;85.30;102429.66;7390449;19;20010;-67
2021/12/15 04:24:17;;;;;;;5.38;0.98;;;;;;;13.95;84.92;102431.59;7389131;19;20038;-67
2021/12/15 04:26:50;;;;;;;3.63;1.42;;;;;;;13.94;85.63;102436.06;7389604;19;21768;-67
2021/12/15 04:29:21;;;;;;;3.72;0.93;;;;;;;13.94;85.60;102425.47;7391126;19;20503;-66
2021/12/15 04:31:55;;;;;;;3.95;2.47;;;;;;;13.92;84.96;102431.84;7389991;19;20014;-67
2021/12/15 04:34:22;;;;;;;4.72;0.77;;;;;;;13.92;85.50;102442.44;7387698;19;20099;-67
2021/12/15 04:36:52;;;;;;;2.88;0.38;;;;;;;13.88;84.03;102433.09;7388197;19;20070;-67
2021/12/15 04:39:23;;;;;;;6.65;2.53;;;;;;;13.87;84.80;102442.84;7391124;19;20411;-67
2021/12/15 04:41:52;;;;;;;3.20;0.60;;;;;;;13.89;84.77;102440.91;7390080;19;20010;-67
2021/12/15 04:44:24;;;;;;;2.45;0.63;;;;;;;13.88;83.75;102441.03;7390229;19;20078;-67
2021/12/15 04:47:00;;;;;;;5.03;0.55;;;;;;;13.88;84.28;102433.94;7388745;19;20541;-68
2021/12/15 04:49:31;;;;;;;1.55;0.50;;;;;;;13.91;82.32;102439.00;7390650;19;20085;-66
2021/12/15 04:52:01;;;;;;;3.67;0.60;;;;;;;13.89;82.65;102443.56;7391198;19;20094;-66
2021/12/15 04:54:29;;;;;;;3.08;0.50;;;;;;;13.91;82.57;102446.94;7386954;19;20128;-67
2021/12/15 04:56:57;;;;;;;5.30;2.60;;;;;;;13.93;82.71;102444.97;7388336;19;20325;-66
2021/12/15 04:59:25;;;;;;;2.20;0.50;;;;;;;13.91;82.17;102448.72;7392675;19;20010;-67
2021/12/15 05:01:52;;;;;;;3.08;0.50;;;;;;;13.92;81.83;102453.88;7394511;19;20021;-67
2021/12/15 05:04:21;;;;;;;4.07;1.88;;;;;;;13.92;82.75;102451.22;7387751;19;20038;-66
2021/12/15 05:06:48;;;;;;;5.57;0.52;;;;;;;13.95;82.29;102455.44;7388661;19;20010;-66
2021/12/15 05:09:15;;;;;;;3.15;1.08;;;;;;;13.94;82.38;102451.94;7391455;19;20031;-66
2021/12/15 05:11:42;;;;;;;4.05;0.75;;;;;;;13.95;82.46;102455.44;7390430;19;20547;-66
2021/12/15 05:14:10;;;;;;;3.10;0.50;;;;;;;13.97;82.34;102456.94;7391453;19;20027;-66
2021/12/15 05:16:37;;;;;;;3.92;1.20;;;;;;;14.00;82.67;102463.78;7389539;19;20063;-66
2021/12/15 05:19:04;;;;;;;3.30;0.40;;;;;;;13.98;82.32;102455.16;7386808;19;20011;-67
2021/12/15 05:21:31;;;;;;;5.35;2.58;;;;;;;13.99;82.83;102467.41;7391498;19;20622;-68
2021/12/15 05:24:07;;;;;;;2.88;0.50;;;;;;;13.98;82.09;102461.28;7389999;19;20354;-66
2021/12/15 05:26:35;;;;;;;4.18;0.45;;;;;;;13.98;81.78;102468.38;7389339;19;20021;-66
2021/12/15 05:29:02;;;;;;;2.15;0.90;;;;;;;13.99;82.52;102462.97;7388699;19;20029;-66
2021/12/15 05:31:29;;;;;;;2.22;0.60;;;;;;;14.00;82.65;102469.94;7392287;19;20074;-67
2021/12/15 05:33:57;;;;;;;4.97;2.33;;;;;;;14.02;82.90;102467.97;7387395;19;20007;-66
2021/12/15 05:36:24;;;;;;;2.13;0.70;;;;;;;14.05;83.10;102461.59;7387992;19;20022;-67
2021/12/15 05:38:51;;;;;;;2.88;0.50;;;;;;;14.06;81.98;102464.09;7388633;19;20013;-67
2021/12/15 05:41:20;;;;;;;2.83;1.10;;;;;;;14.06;82.69;102471.22;7388763;19;20594;-66
2021/12/15 05:43:47;;;;;;;2.85;0.68;;;;;;;14.07;82.54;102467.56;7393604;19;20104;-68
2021/12/15 05:46:14;;;;;;;7.47;2.88;;;;;;;14.10;82.84;102464.66;7387490;19;20348;-67
2021/12/15 05:48:42;;;;;;;4.07;0.57;;;;;;;14.10;82.75;102472.59;7388534;19;20090;-66
2021/12/15 05:51:09;;;;;;;2.05;0.70;;;;;;;14.12;82.18;102468.84;7391701;19;20007;-66
2021/12/15 05:53:36;;;;;;;5.03;1.30;;;;;;;14.11;83.07;102463.69;7385621;19;20082;-67
2021/12/15 05:56:04;;;;;;;1.65;0.70;;;;;;;14.10;82.56;102464.66;7390308;19;20081;-66
2021/12/15 05:58:32;;;;;;;4.82;1.95;;;;;;;14.11;83.49;102463.69;7389337;19;20030;-66
2021/12/15 06:00:59;;;;;;;3.58;0.70;;;;;;;14.12;83.51;102468.84;7390684;19;20523;-66
2021/12/15 06:03:27;;;;;;;4.18;1.85;;;;;;;14.12;82.48;102473.28;7388858;19;20014;-67
2021/12/15 06:05:54;;;;;;;2.95;0.70;;;;;;;14.07;82.25;102471.06;7387806;19;20596;-66
2021/12/15 06:08:21;;;;;;;1.67;0.40;;;;;;;14.04;81.42;102478.44;7392896;19;20011;-67
2021/12/15 06:10:49;;;;;;;7.07;3.60;;;;;;;14.06;83.12;102473.84;7389682;19;20044;-67
2021/12/15 06:13:17;;;;;;;4.38;0.70;;;;;;;14.03;82.80;102469.66;7391542;19;20015;-68
2021/12/15 06:15:45;;;;;;;3.03;1.33;;;;;;;14.05;82.41;102472.16;7388157;19;20010;-67
2021/12/15 06:18:16;;;;;;;3.00;0.70;;;;;;;14.09;83.67;102481.50;7386796;19;20575;-67
2021/12/15 06:20:45;;;;;;;2.28;0.57;;;;;;;14.09;83.02;102484.16;7389681;19;20066;-65
2021/12/15 06:23:18;;;;;;;6.82;4.13;;;;;;;14.11;83.45;102482.22;7386419;19;20035;-67
2021/12/15 06:25:52;;;;;;;3.40;0.90;;;;;;;14.14;83.63;102479.31;7389564;19;20017;-67
2021/12/15 06:28:21;;;;;;;4.22;0.63;;;;;;;14.13;82.42;102483.75;7387400;19;20364;-68
2021/12/15 06:30:49;;;;;;;5.60;1.10;;;;;;;14.15;83.36;102488.91;7391345;19;20041;-68
2021/12/15 06:33:16;;;;;;;3.95;0.82;;;;;;;14.16;82.50;102489.75;7384029;19;20643;-67
2021/12/15 06:35:53;;;;;;;7.03;3.05;;;;;;;14.19;83.39;102490.31;7390065;19;20034;-67
2021/12/15 06:38:23;;;;;;;4.65;0.70;;;;;;;14.20;82.88;102489.34;7390876;19;20018;-66
2021/12/15 06:40:51;;;;;;;6.45;1.73;;;;;;;14.23;82.85;102501.47;7385131;19;20090;-68
2021/12/15 06:43:18;;;;;;;3.80;0.68;;;;;;;14.23;83.19;102491.72;7388411;19;20098;-66
2021/12/15 06:58:23;;;;;;;4.57;2.58;;;;;;;14.23;82.46;102509.41;7389354;19;20006;-67
2021/12/15 07:00:55;;;;;;;5.25;1.20;;;;;;;14.26;82.79;102506.50;7386083;19;20006;-70
2021/12/15 07:03:24;;;;;;;1.98;0.63;;;;;;;14.26;81.95;102506.50;7385220;19;20336;-68
2021/12/15 07:05:52;;;;;;;3.88;0.80;;;;;;;14.26;81.81;102517.09;7384021;19;20035;-67
2021/12/15 07:08:20;;;;;;;5.00;0.60;;;;;;;14.28;81.94;102510.69;7387174;19;20037;-67
2021/12/15 07:10:50;;;;;;;2.53;0.75;;;;;;;14.29;81.64;102522.13;7383889;19;20011;-67
2021/12/15 07:13:19;;;;;;;2.97;0.80;;;;;;;14.29;81.28;102516.81;7383649;19;20645;-67
2021/12/15 07:15:47;;;;;;;1.92;0.75;;;;;;;14.28;81.08;102515.97;7386854;19;20006;-68
2021/12/15 07:18:25;;;;;;;2.72;0.70;;;;;;;14.27;81.01;102508.19;7384964;19;20063;-66
2021/12/15 07:21:05;;;;;;;4.10;0.60;;;;;;;14.26;80.03;102522.41;7388032;19;20029;-68
2021/12/15 07:23:32;;;;;;;3.42;0.60;;;;;;;14.30;81.63;102529.09;7387236;19;20359;-67
2021/12/15 07:25:59;;;;;;;2.97;0.82;;;;;;;14.33;81.64;102519.06;7389905;19;20035;-65
2021/12/15 07:28:26;;;;;;;4.65;0.98;;;;;;;14.35;80.30;102537.47;7385912;19;20061;-66
2021/12/15 07:30:54;;;;;;;4.00;0.75;;;;;;;14.37;81.13;102531.13;7385107;19;20011;-67
2021/12/15 07:33:22;;;;;;;1.52;0.50;;;;;;;14.39;80.11;102537.09;7384768;19;20411;-66
2021/12/15 07:35:49;;;;;;;1.85;0.50;;;;;;;14.42;80.66;102533.34;7384015;19;20003;-67
2021/12/15 07:38:17;;;;;;;4.95;0.80;;;;;;;14.43;80.21;102541.16;7385337;19;20018;-67
2021/12/15 07:40:44;;;;;;;2.83;1.38;;;;;;;14.41;79.92;102543.09;7384289;19;20009;-66
2021/12/15 07:43:24;;;;;;;6.13;0.80;;;;;;;14.42;81.04;102538.66;7383579;19;20006;-68
2021/12/15 07:45:56;;;;;;;3.75;0.50;;;;;;;14.42;80.19;102541.31;7383919;19;20101;-69
2021/12/15 07:48:26;;;;;;;3.95;1.00;;;;;;;14.46;80.91;102546.19;7384714;19;20070;-66
2021/12/15 07:50:57;;;;;;;6.22;0.93;;;;;;;14.46;80.45;102548.00;7386673;19;20467;-66
2021/12/15 07:53:24;;;;;;;6.20;0.93;;;;;;;14.45;80.32;102543.66;7386534;19;20011;-67
2021/12/15 07:55:53;;;;;;;4.60;0.75;;;;;;;14.44;79.51;102547.28;7387683;19;20027;-66
2021/12/15 07:58:22;;;;;;;5.43;1.83;;;;;;;14.45;79.72;102548.97;7389496;19;20010;-67
2021/12/15 08:00:51;;;;;;;8.48;0.98;;;;;;;14.45;81.17;102551.63;7394296;19;19999;-68
2021/12/15 08:03:20;;;;;;;3.20;0.70;;;;;;;14.42;80.34;102552.75;7394024;19;20351;-66
2021/12/15 08:05:50;;;;;;;2.47;0.90;;;;;;;14.42;80.62;102552.75;7392050;19;20010;-67
2021/12/15 08:08:18;;;;;;;4.47;0.60;;;;;;;14.43;80.29;102556.19;7391716;19;20130;-67
2021/12/15 08:10:47;;;;;;;6.20;2.72;;;;;;;14.42;80.97;102560.69;7393160;19;20031;-67
2021/12/15 08:13:15;;;;;;;6.80;0.80;;;;;;;14.43;81.81;102562.34;7392106;19;20023;-68
2021/12/15 08:15:43;;;;;;;4.28;0.68;;;;;;;14.43;80.86;102562.34;7391574;19;20033;-67
2021/12/15 08:18:11;;;;;;;5.00;2.30;;;;;;;14.45;82.03;102559.56;7389390;19;20490;-67
2021/12/15 08:20:39;;;;;;;6.25;1.15;;;;;;;14.47;81.74;102571.72;7392969;19;20010;-68
2021/12/15 08:23:06;;;;;;;4.13;1.52;;;;;;;14.43;80.91;102578.22;7390225;19;20034;-65
2021/12/15 08:25:35;;;;;;;11.93;1.77;;;;;;;14.52;85.36;102568.66;7393382;19;20051;-67
2021/12/15 08:28:04;;;;;;;34.22;2.22;;;;;;;14.60;85.70;102573.25;7389269;19;20015;-67
2021/12/15 08:30:33;;;;;;;14.85;9.43;;;;;;;14.71;84.68;102575.81;7393734;19;20018;-68
2021/12/15 08:33:06;;;;;;;3.03;1.42;;;;;;;14.72;83.82;102578.31;7390469;19;20011;-67
2021/12/15 08:35:40;;;;;;;6.75;2.05;;;;;;;14.71;81.97;102581.09;7389398;19;20006;-67
2021/12/15 08:38:09;;;;;;;8.00;1.27;;;;;;;14.69;81.30;102577.72;7387291;19;20522;-67
2021/12/15 08:40:38;;;;;;;3.47;0.80;;;;;;;14.67;80.70;102583.19;7388543;19;20014;-68
2021/12/15 08:43:07;;;;;;;3.80;1.70;;;;;;;14.67;81.19;102579.69;7390984;19;20042;-67
2021/12/15 08:45:38;;;;;;;2.28;0.98;;;;;;;14.65;80.92;102586.94;7388745;19;20448;-66
2021/12/15 08:48:07;;;;;;;8.48;2.65;;;;;;;14.66;80.96;102588.63;7389731;19;20011;-67
2021/12/15 08:50:39;;;;;;;6.43;1.10;;;;;;;14.68;81.82;102592.00;7393226;19;20003;-68
2021/12/15 08:53:10;;;;;;;5.20;1.30;;;;;;;14.71;81.30;102595.19;7390708;19;20018;-67
2021/12/15 08:55:42;;;;;;;5.13;1.77;;;;;;;14.73;82.67;102598.53;7392441;19;20014;-67
2021/12/15 08:58:11;;;;;;;7.82;1.00;;;;;;;14.74;82.30;102597.56;7390319;19;20052;-67
2021/12/15 09:00:43;;;;;;;5.05;2.47;;;;;;;14.72;81.60;102593.38;7392199;19;20248;-69
2021/12/15 09:03:13;;;;;;;3.50;1.50;;;;;;;14.70;82.34;102597.97;7390981;19;20070;-66
2021/12/15 09:05:42;;;;;;;5.30;1.02;;;;;;;14.70;81.58;102601.47;7389717;19;20010;-67
2021/12/15 09:08:11;;;;;;;5.40;1.08;;;;;;;14.72;82.55;102594.22;7390095;19;20010;-71
2021/12/15 09:10:40;;;;;;;7.43;1.00;;;;;;;14.71;81.58;102597.84;7389085;19;20472;-67
2021/12/15 09:13:09;;;;;;;7.40;3.00;;;;;;;14.71;82.56;102605.78;7371043;19;20027;-67
2021/12/15 09:15:39;;;;;;;3.38;0.98;;;;;;;14.74;82.28;102602.84;7386147;19;20011;-67
2021/12/15 09:18:07;;;;;;;5.30;1.20;;;;;;;14.73;81.48;102605.66;7391287;19;20019;-67
2021/12/15 09:20:37;;;;;;;4.65;1.67;;;;;;;14.71;80.79;102611.09;7390625;19;20011;-67
2021/12/15 09:23:08;;;;;;;6.78;1.27;;;;;;;14.73;81.60;102617.06;7391059;19;20097;-66
2021/12/15 09:25:37;;;;;;;3.30;1.05;;;;;;;14.75;81.68;102616.94;7390276;19;20011;-67
2021/12/15 09:28:05;;;;;;;5.68;1.75;;;;;;;14.76;81.45;102615.97;7389091;19;20042;-67
2021/12/15 09:30:34;;;;;;;6.03;1.10;;;;;;;14.77;81.26;102629.09;7391792;19;20018;-66
2021/12/15 09:33:02;;;;;;;9.77;1.90;;;;;;;14.78;81.59;102628.09;7392939;19;20467;-67
2021/12/15 09:35:31;;;;;;;9.50;1.98;;;;;;;14.77;81.78;102626.47;7387540;19;20384;-67
2021/12/15 09:37:59;;;;;;;3.90;1.30;;;;;;;14.73;81.22;102621.56;7388308;19;20046;-68
2021/12/15 09:40:27;;;;;;;4.20;1.15;;;;;;;14.70;81.00;102619.16;7391790;19;20040;-67
2021/12/15 09:42:56;;;;;;;7.10;3.00;;;;;;;14.72;81.53;102627.84;7389672;19;20191;-68
2021/12/15 10:05:51;;;;;;;6.40;1.42;;;;;;;14.90;80.28;102637.63;7387867;19;20031;-67
2021/12/15 10:18:58;;;;;;;6.18;2.72;;;;;;;14.81;79.59;102654.34;7389758;19;20021;-67
2021/12/15 10:21:31;;;;;;;7.30;1.63;;;;;;;14.81;80.41;102661.47;7387987;19;20015;-66
2021/12/15 10:23:58;;;;;;;6.38;1.17;;;;;;;14.82;79.97;102658.69;7388481;19;20018;-67
2021/12/15 10:26:26;;;;;;;6.03;4.40;;;;;;;14.84;81.25;102658.53;7388802;19;20076;-67
2021/12/15 10:28:54;;;;;;;7.55;1.70;;;;;;;14.85;81.07;102658.41;7388022;19;20019;-68
2021/12/15 10:31:24;;;;;;;8.82;4.18;;;;;;;14.91;81.35;102657.88;7389195;19;20486;-67
2021/12/15 10:33:59;;;;;;;5.75;1.55;;;;;;;14.96;80.86;102650.34;7386887;19;20026;-67
2021/12/15 10:36:28;;;;;;;;;;;;;;;15.01;80.11;102649.09;7386469;19;20030;-66
2021/12/15 10:38:58;;;;;;;2.70;1.67;;;;;;;15.02;80.68;102658.72;7388462;19;19919;-66
2021/12/15 10:41:32;;;;;;;7.13;1.75;;;;;;;14.99;79.63;102658.03;7389199;19;20010;-67
2021/12/15 10:44:06;;;;;;;5.75;2.45;;;;;;;15.02;80.31;102661.38;7386019;19;20031;-66
2021/12/15 10:46:37;;;;;;;6.45;1.30;;;;;;;15.02;79.18;102659.56;7387041;19;20026;-67
2021/12/15 10:49:10;;;;;;;4.60;1.38;;;;;;;15.01;78.50;102657.06;7389095;19;20013;-66
2021/12/15 10:51:45;;;;;;;7.05;1.42;;;;;;;15.03;79.54;102655.13;7386065;19;20011;-67
2021/12/15 10:54:15;;;;;;;4.03;1.10;;;;;;;15.06;78.94;102649.53;7388538;19;20011;-66
2021/12/15 10:56:49;;;;;;;3.35;1.70;;;;;;;15.05;79.29;102658.44;7388493;19;20354;-67
2021/12/15 10:59:17;;;;;;;4.55;1.23;;;;;;;15.05;78.96;102648.69;7388440;19;20036;-67
2021/12/15 11:01:48;;;;;;;3.75;1.10;;;;;;;15.01;77.93;102644.63;7387888;19;20014;-68
2021/12/15 11:04:23;;;;;;;4.20;0.90;;;;;;;14.98;78.01;102651.03;7387408;19;20022;-67
2021/12/15 11:06:57;;;;;;;3.65;1.02;;;;;;;14.97;77.93;102651.19;7391547;19;20279;-67
2021/12/15 11:09:37;;;;;;;9.85;1.50;;;;;;;14.93;78.58;102647.13;7388030;19;20078;-66
2021/12/15 11:12:10;;;;;;;5.40;1.25;;;;;;;14.95;78.77;102651.31;7391090;19;20010;-66
2021/12/15 11:14:40;;;;;;;5.13;2.47;;;;;;;15.01;81.07;102657.06;7387976;19;20011;-67
2021/12/15 11:17:10;;;;;;;5.13;1.23;;;;;;;15.00;79.74;102656.22;7384563;19;20007;-65
2021/12/15 11:19:41;;;;;;;6.57;1.92;;;;;;;14.98;78.81;102648.38;7391192;19;20074;-67
2021/12/15 11:22:17;;;;;;;4.88;1.38;;;;;;;15.04;79.79;102654.13;7386772;19;20044;-67
2021/12/15 11:24:44;;;;;;;7.25;1.25;;;;;;;15.07;78.76;102651.22;7388393;19;20011;-67
2021/12/15 11:27:16;;;;;;;9.00;2.50;;;;;;;15.07;78.48;102645.91;7391173;19;20006;-66
2021/12/15 11:29:43;;;;;;;7.97;1.50;;;;;;;15.11;79.52;102653.44;7389982;19;20072;-67
2021/12/15 11:32:16;;;;;;;6.50;1.60;;;;;;;15.09;78.56;102649.25;7394346;19;20011;-67
2021/12/15 11:35:00;;;;;;;3.92;1.90;;;;;;;15.08;79.00;102650.25;7395055;19;20372;-67
2021/12/15 11:37:33;;;;;;;4.45;1.23;;;;;;;15.06;78.13;102639.75;7395672;19;20074;-66
2021/12/15 11:40:04;;;;;;;8.40;1.40;;;;;;;15.05;78.51;102640.72;7393922;19;20013;-66
2021/12/15 11:42:38;;;;;;;3.88;1.20;;;;;;;15.05;78.43;102645.19;7392446;19;20014;-67
2021/12/15 11:45:08;;;;;;;3.67;1.27;;;;;;;15.05;78.21;102645.19;7394463;19;20057;-68
2021/12/15 11:47:37;;;;;;;6.20;1.20;;;;;;;15.03;77.88;102641.84;7396061;19;20834;-68
2021/12/15 11:50:08;;;;;;;7.35;1.27;;;;;;;15.02;78.45;102638.38;7394797;19;20361;-68
2021/12/15 11:52:41;;;;;;;5.10;1.80;;;;;;;15.06;80.01;102637.09;7392289;19;20094;-67
2021/12/15 11:55:15;;;;;;;5.53;1.58;;;;;;;15.08;79.56;102637.81;7393195;19;20475;-66
2021/12/15 11:57:50;;;;;;;5.18;1.35;;;;;;;15.11;80.16;102640.19;7395543;19;20006;-67
2021/12/15 12:00:21;;;;;;;8.88;1.92;;;;;;;15.13;79.84;102640.91;7392740;19;20014;-67
2021/12/15 12:02:54;;;;;;;7.72;1.83;;;;;;;15.10;78.76;102637.66;7389800;19;20086;-67
2021/12/15 12:05:24;;;;;;;5.22;1.67;;;;;;;15.12;80.54;102641.88;7393102;19;20457;-67
2021/12/15 12:07:54;;;;;;;3.42;1.55;;;;;;;15.05;78.71;102643.38;7394207;19;20050;-68
2021/12/15 12:10:30;;;;;;;8.23;4.38;;;;;;;15.06;79.55;102642.41;7391738;19;20085;-68
2021/12/15 12:13:06;;;;;;;5.50;1.60;;;;;;;15.09;80.37;102646.59;7394744;19;20014;-66
2021/12/15 12:15:38;;;;;;;27.55;12.35;;;;;;;15.10;79.01;102643.81;7391144;19;20078;-67
2021/12/15 12:18:09;;;;;;;6.75;2.50;;;;;;;15.14;79.95;102639.06;7388169;19;20048;-67
2021/12/15 12:20:42;;;;;;;7.25;1.60;;;;;;;15.15;79.29;102641.59;7392824;19;20010;-67
2021/12/15 12:23:13;;;;;;;5.20;1.52;;;;;;;15.15;78.88;102641.59;7394184;19;20365;-66
2021/12/15 12:25:46;;;;;;;5.90;2.05;;;;;;;15.15;79.00;102643.41;7395724;19;20019;-67
2021/12/15 12:28:22;;;;;;;5.13;2.10;;;;;;;15.15;78.97;102648.69;7390151;19;20023;-67
2021/12/15 12:30:56;;;;;;;5.60;2.28;;;;;;;15.16;79.75;102637.13;7390880;19;20302;-66
2021/12/15 12:33:26;;;;;;;5.93;1.70;;;;;;;15.17;79.64;102647.59;7392734;19;20036;-68
2021/12/15 12:35:58;;;;;;;7.13;1.90;;;;;;;15.16;79.75;102642.41;7389314;19;20045;-67
2021/12/15 12:38:28;;;;;;;6.47;2.03;;;;;;;15.14;79.28;102639.06;7392795;19;20010;-67
2021/12/15 12:41:00;;;;;;;7.32;2.03;;;;;;;15.16;79.63;102650.38;7390566;19;20018;-67
2021/12/15 12:43:29;;;;;;;6.80;1.58;;;;;;;15.16;79.55;102645.06;7392394;19;20015;-66
2021/12/15 12:46:05;;;;;;;11.85;3.42;;;;;;;15.19;79.06;102648.28;7393650;19;20030;-68
2021/12/15 13:01:46;;;;;;;5.80;1.85;;;;;;;15.20;78.54;102649.13;7391726;19;20011;-67
2021/12/15 13:04:14;;;;;;;7.60;1.88;;;;;;;15.22;78.90;102647.19;7393468;19;20015;-66
2021/12/15 13:06:43;;;;;;;5.25;2.08;;;;;;;15.22;78.61;102644.53;7390255;19;20027;-66
2021/12/15 13:09:16;;;;;;;11.00;2.47;;;;;;;15.22;78.89;102637.41;7390935;19;20014;-67
2021/12/15 13:11:50;;;;;;;5.57;1.92;;;;;;;15.22;77.76;102642.72;7389906;19;20377;-66
2021/12/15 13:14:33;;;;;;;9.38;2.47;;;;;;;15.19;77.39;102645.63;7393417;19;20659;-66
2021/12/15 13:17:07;;;;;;;5.25;1.42;;;;;;;15.20;77.37;102647.31;7390599;19;20511;-66
2021/12/15 13:19:42;;;;;;;7.32;5.15;;;;;;;15.26;80.51;102643.28;7388754;19;20009;-68
2021/12/15 13:29:51;;;;;;;7.40;2.45;;;;;;;15.30;77.91;102639.34;7392704;19;20026;-66
2021/12/15 13:32:29;;;;;;;9.20;2.92;;;;;;;15.30;78.60;102637.53;7392810;19;20491;-66